sensor_id;sensor_type;location;lat;lon;timestamp;pressure;altitude;pressure_sealevel;temperature;humidity
5996;BME280;3026;53.612;7.278;2022-11-11T00:01:29;102342.44;;;13.03;100.00
5996;BME280;3026;53.612;7.278;2022-11-11T00:03:58;102338.69;;;13.04;100.00
5996;BME280;3026;53.612;7.278;2022-11-11T00:06:27;102322.72;;;12.99;100.00
5996;BME280;3026;53.612;7.278;2022-11-11T00:08:54;102316.41;;;12.99;100.00
5996;BME280;3026;53.612;7.278;2022-11-11T00:11:21;102325.16;;;13.02;100.00
5996;BME280;3026;53.612;7.278;2022-11-11T00:13:49;102335.94;;;13.04;100.00
5996;BME280;3026;53.612;7.278;2022-11-11T00:16:17;102328.91;;;13.01;100.00
5996;BME280;3026;53.612;7.278;2022-11-11T00:18:45;102324.63;;;12.99;100.00
5996;BME280;3026;53.612;7.278;2022-11-11T00:21:31;102328.91;;;13.01;100.00
5996;BME280;3026;53.612;7.278;2022-11-11T00:24:21;102330.78;;;13.01;100.00
5996;BME280;3026;53.612;7.278;2022-11-11T00:27:06;102331.81;;;13.00;100.00
5996;BME280;3026;53.612;7.278;2022-11-11T00:29:33;102330.09;;;12.99;100.00
5996;BME280;3026;53.612;7.278;2022-11-11T00:32:04;102324.03;;;12.95;100.00
5996;BME280;3026;53.612;7.278;2022-11-11T00:34:49;102329.50;;;12.95;100.00
5996;BME280;3026;53.612;7.278;2022-11-11T00:37:38;102328.66;;;12.95;100.00
5996;BME280;3026;53.612;7.278;2022-11-11T00:40:06;102346.78;;;12.96;100.00
5996;BME280;3026;53.612;7.278;2022-11-11T00:42:33;102348.81;;;12.94;100.00
5996;BME280;3026;53.612;7.278;2022-11-11T00:45:01;102352.28;;;12.96;100.00
5996;BME280;3026;53.612;7.278;2022-11-11T00:47:30;102343.66;;;12.91;100.00
5996;BME280;3026;53.612;7.278;2022-11-11T00:50:18;102334.13;;;12.95;100.00
5996;BME280;3026;53.612;7.278;2022-11-11T00:53:12;102328.97;;;12.92;100.00
5996;BME280;3026;53.612;7.278;2022-11-11T00:55:39;102337.19;;;12.92;100.00
5996;BME280;3026;53.612;7.278;2022-11-11T00:58:06;102327.25;;;12.91;100.00
5996;BME280;3026;53.612;7.278;2022-11-11T01:00:37;102334.75;;;12.89;100.00
5996;BME280;3026;53.612;7.278;2022-11-11T01:03:04;102333.03;;;12.88;100.00
5996;BME280;3026;53.612;7.278;2022-11-11T01:05:31;102340.06;;;12.90;100.00
5996;BME280;3026;53.612;7.278;2022-11-11T01:07:58;102340.53;;;12.85;100.00
5996;BME280;3026;53.612;7.278;2022-11-11T01:10:35;102349.72;;;12.84;100.00
5996;BME280;3026;53.612;7.278;2022-11-11T01:13:19;102342.25;;;12.87;100.00
5996;BME280;3026;53.612;7.278;2022-11-11T01:15:49;102355.19;;;12.84;100.00
5996;BME280;3026;53.612;7.278;2022-11-11T01:18:21;102337.06;;;12.83;100.00
5996;BME280;3026;53.612;7.278;2022-11-11T01:20:59;102327.28;;;12.81;100.00
5996;BME280;3026;53.612;7.278;2022-11-11T01:23:31;102331.91;;;12.80;100.00
5996;BME280;3026;53.612;7.278;2022-11-11T01:26:13;102327.44;;;12.79;100.00
5996;BME280;3026;53.612;7.278;2022-11-11T01:28:41;102307.72;;;12.76;100.00
5996;BME280;3026;53.612;7.278;2022-11-11T01:31:12;102303.38;;;12.73;100.00
5996;BME280;3026;53.612;7.278;2022-11-11T01:33:47;102302.81;;;12.79;100.00
5996;BME280;3026;53.612;7.278;2022-11-11T01:36:16;102294.19;;;12.74;100.00
5996;BME280;3026;53.612;7.278;2022-11-11T01:38:51;102295.75;;;12.77;100.00
5996;BME280;3026;53.612;7.278;2022-11-11T01:41:21;102288.13;;;12.71;100.00
5996;BME280;3026;53.612;7.278;2022-11-11T01:44:38;102292.44;;;12.73;100.00
5996;BME280;3026;53.612;7.278;2022-11-11T01:47:05;102289.00;;;12.71;100.00
5996;BME280;3026;53.612;7.278;2022-11-11T01:49:39;102278.06;;;12.71;100.00
5996;BME280;3026;53.612;7.278;2022-11-11T01:52:17;102285.25;;;12.72;100.00
5996;BME280;3026;53.612;7.278;2022-11-11T01:54:48;102300.25;;;12.68;100.00
5996;BME280;3026;53.612;7.278;2022-11-11T01:57:22;102300.25;;;12.68;100.00
5996;BME280;3026;53.612;7.278;2022-11-11T01:59:54;102316.38;;;12.71;100.00
5996;BME280;3026;53.612;7.278;2022-11-11T02:02:33;102334.50;;;12.72;100.00
5996;BME280;3026;53.612;7.278;2022-11-11T02:05:08;102325.91;;;12.67;100.00
5996;BME280;3026;53.612;7.278;2022-11-11T02:07:53;102347.50;;;12.70;100.00
5996;BME280;3026;53.612;7.278;2022-11-11T02:10:24;102360.00;;;12.73;100.00
5996;BME280;3026;53.612;7.278;2022-11-11T02:12:53;102357.16;;;12.74;100.00
5996;BME280;3026;53.612;7.278;2022-11-11T02:15:38;102374.56;;;12.73;100.00
5996;BME280;3026;53.612;7.278;2022-11-11T02:18:05;102361.59;;;12.75;100.00
5996;BME280;3026;53.612;7.278;2022-11-11T02:20:35;102364.34;;;12.75;100.00
5996;BME280;3026;53.612;7.278;2022-11-11T02:23:06;102356.13;;;12.75;100.00
5996;BME280;3026;53.612;7.278;2022-11-11T02:25:44;102341.44;;;12.76;100.00
5996;BME280;3026;53.612;7.278;2022-11-11T02:28:13;102337.41;;;12.71;100.00
5996;BME280;3026;53.612;7.278;2022-11-11T02:30:41;102342.00;;;12.70;100.00
5996;BME280;3026;53.612;7.278;2022-11-11T02:33:13;102335.69;;;12.70;100.00
5996;BME280;3026;53.612;7.278;2022-11-11T02:35:45;102338.00;;;12.74;100.00
5996;BME280;3026;53.612;7.278;2022-11-11T02:38:23;102340.00;;;12.72;100.00
5996;BME280;3026;53.612;7.278;2022-11-11T02:40:54;102336.53;;;12.70;100.00
5996;BME280;3026;53.612;7.278;2022-11-11T02:43:41;102347.19;;;12.73;100.00
5996;BME280;3026;53.612;7.278;2022-11-11T02:46:08;102354.41;;;12.74;100.00
5996;BME280;3026;53.612;7.278;2022-11-11T02:48:36;102342.72;;;12.72;100.00
5996;BME280;3026;53.612;7.278;2022-11-11T02:51:03;102345.47;;;12.72;100.00
5996;BME280;3026;53.612;7.278;2022-11-11T02:53:36;102356.13;;;12.75;100.00
5996;BME280;3026;53.612;7.278;2022-11-11T02:56:06;102352.66;;;12.73;100.00
5996;BME280;3026;53.612;7.278;2022-11-11T02:58:33;102360.59;;;12.76;100.00
5996;BME280;3026;53.612;7.278;2022-11-11T03:01:06;102341.72;;;12.73;100.00
5996;BME280;3026;53.612;7.278;2022-11-11T03:03:33;102346.19;;;12.74;100.00
5996;BME280;3026;53.612;7.278;2022-11-11T03:06:00;102351.38;;;12.77;100.00
5996;BME280;3026;53.612;7.278;2022-11-11T03:08:27;102334.09;;;12.77;100.00
5996;BME280;3026;53.612;7.278;2022-11-11T03:10:54;102334.94;;;12.77;100.00
5996;BME280;3026;53.612;7.278;2022-11-11T03:13:29;102335.66;;;12.79;100.00
5996;BME280;3026;53.612;7.278;2022-11-11T03:15:58;102329.47;;;12.77;100.00
5996;BME280;3026;53.612;7.278;2022-11-11T03:18:27;102325.00;;;12.76;100.00
5996;BME280;3026;53.612;7.278;2022-11-11T03:20:53;102323.84;;;12.79;100.00
5996;BME280;3026;53.612;7.278;2022-11-11T03:23:36;102335.97;;;12.76;100.00
5996;BME280;3026;53.612;7.278;2022-11-11T03:26:07;102333.38;;;12.75;100.00
5996;BME280;3026;53.612;7.278;2022-11-11T03:28:42;102344.88;;;12.78;100.00
5996;BME280;3026;53.612;7.278;2022-11-11T03:31:11;102345.88;;;12.77;100.00
5996;BME280;3026;53.612;7.278;2022-11-11T03:33:38;102342.28;;;12.77;100.00
5996;BME280;3026;53.612;7.278;2022-11-11T03:36:08;102344.88;;;12.78;100.00
5996;BME280;3026;53.612;7.278;2022-11-11T03:38:45;102351.38;;;12.77;100.00
5996;BME280;3026;53.612;7.278;2022-11-11T03:41:11;102354.81;;;12.79;100.00
5996;BME280;3026;53.612;7.278;2022-11-11T03:43:42;102348.63;;;12.77;100.00
5996;BME280;3026;53.612;7.278;2022-11-11T03:46:14;102359.25;;;12.80;100.00
5996;BME280;3026;53.612;7.278;2022-11-11T03:48:41;102353.94;;;12.79;100.00
5996;BME280;3026;53.612;7.278;2022-11-11T03:51:08;102350.34;;;12.78;100.00
5996;BME280;3026;53.612;7.278;2022-11-11T03:53:41;102346.91;;;12.76;100.00
5996;BME280;3026;53.612;7.278;2022-11-11T03:56:08;102345.19;;;12.75;100.00
5996;BME280;3026;53.612;7.278;2022-11-11T03:58:35;102345.19;;;12.75;100.00
5996;BME280;3026;53.612;7.278;2022-11-11T04:01:08;102359.88;;;12.74;100.00
5996;BME280;3026;53.612;7.278;2022-11-11T04:03:55;102361.59;;;12.75;100.00
5996;BME280;3026;53.612;7.278;2022-11-11T04:06:39;102360.16;;;12.71;100.00
5996;BME280;3026;53.612;7.278;2022-11-11T04:09:24;102359.03;;;12.74;100.00
5996;BME280;3026;53.612;7.278;2022-11-11T04:12:08;102351.69;;;12.74;100.00
5996;BME280;3026;53.612;7.278;2022-11-11T04:14:35;102352.66;;;12.73;100.00
5996;BME280;3026;53.612;7.278;2022-11-11T04:17:21;102358.28;;;12.72;100.00
5996;BME280;3026;53.612;7.278;2022-11-11T04:19:48;102363.59;;;12.73;100.00
5996;BME280;3026;53.612;7.278;2022-11-11T04:22:32;102362.19;;;12.69;100.00
5996;BME280;3026;53.612;7.278;2022-11-11T04:24:59;102364.94;;;12.69;100.00
5996;BME280;3026;53.612;7.278;2022-11-11T04:27:43;102377.75;;;12.69;100.00
5996;BME280;3026;53.612;7.278;2022-11-11T04:30:13;102378.63;;;12.69;100.00
5996;BME280;3026;53.612;7.278;2022-11-11T04:32:40;102380.34;;;12.70;100.00
5996;BME280;3026;53.612;7.278;2022-11-11T04:35:11;102364.53;;;12.64;100.00
5996;BME280;3026;53.612;7.278;2022-11-11T04:37:52;102371.88;;;12.64;100.00
5996;BME280;3026;53.612;7.278;2022-11-11T04:40:46;102376.59;;;12.62;100.00
5996;BME280;3026;53.612;7.278;2022-11-11T04:43:39;102376.06;;;12.58;100.00
5996;BME280;3026;53.612;7.278;2022-11-11T04:46:20;102366.81;;;12.59;100.00
5996;BME280;3026;53.612;7.278;2022-11-11T04:48:52;102372.03;;;12.62;100.00
5996;BME280;3026;53.612;7.278;2022-11-11T04:51:29;102365.41;;;12.55;100.00
5996;BME280;3026;53.612;7.278;2022-11-11T04:54:18;102365.72;;;12.52;100.00
5996;BME280;3026;53.612;7.278;2022-11-11T04:56:47;102371.34;;;12.50;100.00
5996;BME280;3026;53.612;7.278;2022-11-11T04:59:14;102382.13;;;12.52;100.00
5996;BME280;3026;53.612;7.278;2022-11-11T05:01:42;102367.72;;;12.50;100.00
5996;BME280;3026;53.612;7.278;2022-11-11T05:04:28;102370.59;;;12.48;100.00
5996;BME280;3026;53.612;7.278;2022-11-11T05:07:11;102368.03;;;12.47;100.00
5996;BME280;3026;53.612;7.278;2022-11-11T05:09:56;102370.34;;;12.42;100.00
5996;BME280;3026;53.612;7.278;2022-11-11T05:12:38;102363.44;;;12.38;100.00
5996;BME280;3026;53.612;7.278;2022-11-11T05:15:08;102375.81;;;12.42;100.00
5996;BME280;3026;53.612;7.278;2022-11-11T05:18:04;102362.56;;;12.37;100.00
5996;BME280;3026;53.612;7.278;2022-11-11T05:20:51;102368.19;;;12.36;100.00
5996;BME280;3026;53.612;7.278;2022-11-11T05:23:35;102375.22;;;12.38;100.00
5996;BME280;3026;53.612;7.278;2022-11-11T05:26:16;102365.44;;;12.36;100.00
5996;BME280;3026;53.612;7.278;2022-11-11T05:28:43;102367.19;;;12.37;100.00
5996;BME280;3026;53.612;7.278;2022-11-11T05:31:13;102366.78;;;12.32;100.00
5996;BME280;3026;53.612;7.278;2022-11-11T05:33:42;102370.91;;;12.36;100.00
5996;BME280;3026;53.612;7.278;2022-11-11T05:36:10;102367.63;;;12.32;100.00
5996;BME280;3026;53.612;7.278;2022-11-11T05:38:38;102373.38;;;12.39;100.00
5996;BME280;3026;53.612;7.278;2022-11-11T05:41:11;102375.22;;;12.38;100.00
5996;BME280;3026;53.612;7.278;2022-11-11T05:43:39;102384.75;;;12.34;100.00
5996;BME280;3026;53.612;7.278;2022-11-11T05:46:07;102395.69;;;12.34;100.00
5996;BME280;3026;53.612;7.278;2022-11-11T05:48:34;102382.16;;;12.33;100.00
5996;BME280;3026;53.612;7.278;2022-11-11T05:51:22;102387.63;;;12.33;100.00
5996;BME280;3026;53.612;7.278;2022-11-11T05:53:55;102407.50;;;12.35;100.00
5996;BME280;3026;53.612;7.278;2022-11-11T05:56:23;102402.31;;;12.32;100.00
5996;BME280;3026;53.612;7.278;2022-11-11T05:58:56;102417.00;;;12.31;100.00
5996;BME280;3026;53.612;7.278;2022-11-11T06:01:27;102416.72;;;12.34;100.00
5996;BME280;3026;53.612;7.278;2022-11-11T06:04:07;102413.25;;;12.32;100.00
5996;BME280;3026;53.612;7.278;2022-11-11T06:06:39;102420.47;;;12.33;100.00
5996;BME280;3026;53.612;7.278;2022-11-11T06:09:12;102420.75;;;12.30;100.00
5996;BME280;3026;53.612;7.278;2022-11-11T06:11:39;102420.75;;;12.30;100.00
5996;BME280;3026;53.612;7.278;2022-11-11T06:14:06;102432.41;;;12.32;100.00
5996;BME280;3026;53.612;7.278;2022-11-11T06:16:35;102424.50;;;12.29;100.00
5996;BME280;3026;53.612;7.278;2022-11-11T06:19:02;102430.69;;;12.31;100.00
5996;BME280;3026;53.612;7.278;2022-11-11T06:21:29;102430.84;;;12.29;100.00
5996;BME280;3026;53.612;7.278;2022-11-11T06:23:58;102419.31;;;12.25;100.00
5996;BME280;3026;53.612;7.278;2022-11-11T06:26:28;102429.38;;;12.25;100.00
5996;BME280;3026;53.612;7.278;2022-11-11T06:28:55;102438.19;;;12.29;100.00
5996;BME280;3026;53.612;7.278;2022-11-11T06:31:23;102448.38;;;12.26;100.00
5996;BME280;3026;53.612;7.278;2022-11-11T06:33:50;102433.28;;;12.22;100.00
5996;BME280;3026;53.612;7.278;2022-11-11T06:36:20;102444.06;;;12.24;100.00
5996;BME280;3026;53.612;7.278;2022-11-11T06:38:48;102444.94;;;12.24;100.00
5996;BME280;3026;53.612;7.278;2022-11-11T06:41:19;102463.06;;;12.25;100.00
5996;BME280;3026;53.612;7.278;2022-11-11T06:43:49;102451.41;;;12.23;100.00
5996;BME280;3026;53.612;7.278;2022-11-11T06:46:21;102453.13;;;12.24;100.00
5996;BME280;3026;53.612;7.278;2022-11-11T06:48:50;102443.50;;;12.20;100.00
5996;BME280;3026;53.612;7.278;2022-11-11T06:51:17;102442.66;;;12.20;100.00
5996;BME280;3026;53.612;7.278;2022-11-11T06:53:45;102448.97;;;12.20;100.00
5996;BME280;3026;53.612;7.278;2022-11-11T06:56:21;102453.00;;;12.16;100.00
5996;BME280;3026;53.612;7.278;2022-11-11T06:58:48;102450.53;;;12.13;100.00
5996;BME280;3026;53.612;7.278;2022-11-11T07:01:15;102467.41;;;12.18;100.00
5996;BME280;3026;53.612;7.278;2022-11-11T07:03:43;102461.94;;;12.18;100.00
5996;BME280;3026;53.612;7.278;2022-11-11T07:06:10;102453.28;;;12.13;100.00
5996;BME280;3026;53.612;7.278;2022-11-11T07:08:37;102468.56;;;12.16;100.00
5996;BME280;3026;53.612;7.278;2022-11-11T07:11:04;102463.22;;;12.14;100.00
5996;BME280;3026;53.612;7.278;2022-11-11T07:13:36;102469.69;;;12.13;100.00
5996;BME280;3026;53.612;7.278;2022-11-11T07:16:03;102477.34;;;12.19;100.00
5996;BME280;3026;53.612;7.278;2022-11-11T07:18:30;102479.22;;;12.19;100.00
5996;BME280;3026;53.612;7.278;2022-11-11T07:20:57;102486.25;;;12.21;100.00
5996;BME280;3026;53.612;7.278;2022-11-11T07:23:23;102475.31;;;12.21;100.00
5996;BME280;3026;53.612;7.278;2022-11-11T07:25:56;102478.03;;;12.21;100.00
5996;BME280;3026;53.612;7.278;2022-11-11T07:28:23;102476.19;;;12.22;100.00
5996;BME280;3026;53.612;7.278;2022-11-11T07:30:52;102483.50;;;12.21;100.00
5996;BME280;3026;53.612;7.278;2022-11-11T07:33:19;102483.22;;;12.24;100.00
5996;BME280;3026;53.612;7.278;2022-11-11T07:35:48;102479.47;;;12.25;100.00
5996;BME280;3026;53.612;7.278;2022-11-11T07:38:18;102479.78;;;12.22;100.00
5996;BME280;3026;53.612;7.278;2022-11-11T07:40:45;102476.03;;;12.23;100.00
5996;BME280;3026;53.612;7.278;2022-11-11T07:43:26;102475.72;;;12.26;100.00
5996;BME280;3026;53.612;7.278;2022-11-11T07:45:57;102493.59;;;12.31;100.00
5996;BME280;3026;53.612;7.278;2022-11-11T07:48:24;102493.59;;;12.31;100.00
5996;BME280;3026;53.612;7.278;2022-11-11T07:50:53;102499.94;;;12.31;100.00
5996;BME280;3026;53.612;7.278;2022-11-11T07:53:20;102504.97;;;12.36;100.00
5996;BME280;3026;53.612;7.278;2022-11-11T07:55:47;102507.69;;;12.36;100.00
5996;BME280;3026;53.612;7.278;2022-11-11T07:58:18;102511.44;;;12.35;100.00
5996;BME280;3026;53.612;7.278;2022-11-11T08:00:45;102509.16;;;12.40;100.00
5996;BME280;3026;53.612;7.278;2022-11-11T08:03:14;102512.63;;;12.42;100.00
5996;BME280;3026;53.612;7.278;2022-11-11T08:05:41;102507.13;;;12.42;100.00
5996;BME280;3026;53.612;7.278;2022-11-11T08:08:09;102526.72;;;12.47;100.00
5996;BME280;3026;53.612;7.278;2022-11-11T08:10:39;102520.66;;;12.43;100.00
5996;BME280;3026;53.612;7.278;2022-11-11T08:13:05;102541.41;;;12.46;100.00
5996;BME280;3026;53.612;7.278;2022-11-11T08:15:50;102540.09;;;12.50;100.00
5996;BME280;3026;53.612;7.278;2022-11-11T08:18:18;102542.81;;;12.50;100.00
5996;BME280;3026;53.612;7.278;2022-11-11T08:20:45;102551.78;;;12.52;100.00
5996;BME280;3026;53.612;7.278;2022-11-11T08:23:15;102548.03;;;12.53;100.00
5996;BME280;3026;53.612;7.278;2022-11-11T08:25:46;102542.81;;;12.50;100.00
5996;BME280;3026;53.612;7.278;2022-11-11T08:28:13;102546.31;;;12.52;100.00
5996;BME280;3026;53.612;7.278;2022-11-11T08:30:40;102549.03;;;12.52;100.00
5996;BME280;3026;53.612;7.278;2022-11-11T08:33:10;102552.34;;;12.55;100.00
5996;BME280;3026;53.612;7.278;2022-11-11T08:35:39;102554.22;;;12.55;100.00
5996;BME280;3026;53.612;7.278;2022-11-11T08:38:06;102556.97;;;12.55;100.00
5996;BME280;3026;53.612;7.278;2022-11-11T08:40:33;102551.19;;;12.58;100.00
5996;BME280;3026;53.612;7.278;2022-11-11T08:43:10;102555.94;;;12.56;100.00
5996;BME280;3026;53.612;7.278;2022-11-11T08:45:37;102553.22;;;12.56;100.00
5996;BME280;3026;53.612;7.278;2022-11-11T08:48:04;102558.38;;;12.59;100.00
5996;BME280;3026;53.612;7.278;2022-11-11T08:50:43;102565.31;;;12.63;100.00
5996;BME280;3026;53.612;7.278;2022-11-11T08:53:10;102564.47;;;12.63;100.00
5996;BME280;3026;53.612;7.278;2022-11-11T08:55:37;102560.72;;;12.64;100.00
5996;BME280;3026;53.612;7.278;2022-11-11T08:58:09;102559.84;;;12.63;100.00
5996;BME280;3026;53.612;7.278;2022-11-11T09:00:36;102573.78;;;12.60;100.00
5996;BME280;3026;53.612;7.278;2022-11-11T09:03:05;102575.41;;;12.63;100.00
5996;BME280;3026;53.612;7.278;2022-11-11T09:05:34;102583.72;;;12.61;100.00
5996;BME280;3026;53.612;7.278;2022-11-11T09:08:07;102582.88;;;12.61;100.00
5996;BME280;3026;53.612;7.278;2022-11-11T09:10:35;102580.88;;;12.63;100.00
5996;BME280;3026;53.612;7.278;2022-11-11T09:13:05;102579.00;;;12.63;100.00
5996;BME280;3026;53.612;7.278;2022-11-11T09:15:38;102581.59;;;12.65;100.00
5996;BME280;3026;53.612;7.278;2022-11-11T09:18:05;102585.19;;;12.65;100.00
5996;BME280;3026;53.612;7.278;2022-11-11T09:20:35;102584.75;;;12.60;100.00
5996;BME280;3026;53.612;7.278;2022-11-11T09:23:09;102590.66;;;12.65;100.00
5996;BME280;3026;53.612;7.278;2022-11-11T09:25:36;102594.41;;;12.64;100.00
5996;BME280;3026;53.612;7.278;2022-11-11T09:28:08;102612.56;;;12.65;100.00
5996;BME280;3026;53.612;7.278;2022-11-11T09:30:38;102614.59;;;12.63;100.00
5996;BME280;3026;53.612;7.278;2022-11-11T09:33:04;102620.78;;;12.65;100.00
5996;BME280;3026;53.612;7.278;2022-11-11T09:35:35;102630.72;;;12.66;100.00
5996;BME280;3026;53.612;7.278;2022-11-11T09:38:09;102624.78;;;12.61;100.00
5996;BME280;3026;53.612;7.278;2022-11-11T09:40:50;102630.16;;;12.63;100.00
5996;BME280;3026;53.612;7.278;2022-11-11T09:43:34;102637.50;;;12.62;100.00
5996;BME280;3026;53.612;7.278;2022-11-11T09:51:54;102640.50;;;12.59;100.00
5996;BME280;3026;53.612;7.278;2022-11-11T09:54:30;102649.41;;;12.61;100.00
5996;BME280;3026;53.612;7.278;2022-11-11T09:57:09;102645.97;;;12.59;100.00
5996;BME280;3026;53.612;7.278;2022-11-11T09:59:46;102640.50;;;12.59;100.00
5996;BME280;3026;53.612;7.278;2022-11-11T10:02:27;102628.97;;;12.55;100.00
5996;BME280;3026;53.612;7.278;2022-11-11T10:05:09;102627.81;;;12.58;100.00
5996;BME280;3026;53.612;7.278;2022-11-11T10:07:45;102631.25;;;12.60;100.00
5996;BME280;3026;53.612;7.278;2022-11-11T10:10:19;102620.63;;;12.57;100.00
5996;BME280;3026;53.612;7.278;2022-11-11T10:12:56;102619.19;;;12.53;100.00
5996;BME280;3026;53.612;7.278;2022-11-11T10:15:26;102625.06;;;12.58;100.00
5996;BME280;3026;53.612;7.278;2022-11-11T10:18:22;102640.50;;;12.59;100.00
5996;BME280;3026;53.612;7.278;2022-11-11T10:20:54;102636.75;;;12.60;100.00
5996;BME280;3026;53.612;7.278;2022-11-11T10:23:28;102631.25;;;12.60;100.00
5996;BME280;3026;53.612;7.278;2022-11-11T10:26:01;102633.00;;;12.61;100.00
5996;BME280;3026;53.612;7.278;2022-11-11T10:28:36;102622.34;;;12.58;100.00
5996;BME280;3026;53.612;7.278;2022-11-11T10:31:18;102630.41;;;12.60;100.00
5996;BME280;3026;53.612;7.278;2022-11-11T10:33:50;102622.34;;;12.58;100.00
5996;BME280;3026;53.612;7.278;2022-11-11T10:36:26;102624.06;;;12.59;100.00
5996;BME280;3026;53.612;7.278;2022-11-11T10:38:57;102633.28;;;12.58;100.00
5996;BME280;3026;53.612;7.278;2022-11-11T10:41:28;102624.94;;;12.60;100.00
5996;BME280;3026;53.612;7.278;2022-11-11T10:44:18;102618.88;;;12.56;100.00
5996;BME280;3026;53.612;7.278;2022-11-11T10:46:54;102620.63;;;12.57;100.00
5996;BME280;3026;53.612;7.278;2022-11-11T10:49:29;102622.34;;;12.58;100.00
5996;BME280;3026;53.612;7.278;2022-11-11T10:52:11;102626.09;;;12.57;100.00
5996;BME280;3026;53.612;7.278;2022-11-11T10:54:45;102631.84;;;12.54;100.00
5996;BME280;3026;53.612;7.278;2022-11-11T10:57:21;102627.38;;;12.53;100.00
5996;BME280;3026;53.612;7.278;2022-11-11T10:59:55;102630.28;;;12.51;100.00
5996;BME280;3026;53.612;7.278;2022-11-11T11:02:27;102623.19;;;12.49;100.00
5996;BME280;3026;53.612;7.278;2022-11-11T11:05:00;102624.91;;;12.50;100.00
5996;BME280;3026;53.612;7.278;2022-11-11T11:07:33;102634.41;;;12.46;100.00
5996;BME280;3026;53.612;7.278;2022-11-11T11:10:07;102640.63;;;12.48;100.00
5996;BME280;3026;53.612;7.278;2022-11-11T11:12:42;102645.06;;;12.49;100.00
5996;BME280;3026;53.612;7.278;2022-11-11T11:15:17;102641.63;;;12.47;100.00
5996;BME280;3026;53.612;7.278;2022-11-11T11:17:52;102644.22;;;12.48;100.00
5996;BME280;3026;53.612;7.278;2022-11-11T11:20:21;102647.09;;;12.47;100.00
5996;BME280;3026;53.612;7.278;2022-11-11T11:22:54;102633.72;;;12.44;100.00
5996;BME280;3026;53.612;7.278;2022-11-11T11:25:24;102634.41;;;12.46;100.00
5996;BME280;3026;53.612;7.278;2022-11-11T11:28:03;102634.72;;;12.43;100.00
5996;BME280;3026;53.612;7.278;2022-11-11T11:30:35;102621.47;;;12.48;100.00
5996;BME280;3026;53.612;7.278;2022-11-11T11:33:06;102631.53;;;12.47;100.00
5996;BME280;3026;53.612;7.278;2022-11-11T11:35:37;102644.22;;;12.48;100.00
5996;BME280;3026;53.612;7.278;2022-11-11T11:38:05;102640.91;;;12.45;100.00
5996;BME280;3026;53.612;7.278;2022-11-11T11:40:50;102643.66;;;12.45;100.00
5996;BME280;3026;53.612;7.278;2022-11-11T11:43:32;102647.38;;;12.44;100.00
5996;BME280;3026;53.612;7.278;2022-11-11T11:49:01;102647.69;;;12.41;100.00
5996;BME280;3026;53.612;7.278;2022-11-11T11:51:36;102646.81;;;12.40;100.00
5996;BME280;3026;53.612;7.278;2022-11-11T11:54:37;102637.00;;;12.38;100.00
5996;BME280;3026;53.612;7.278;2022-11-11T11:57:22;102653.41;;;12.38;100.00
5996;BME280;3026;53.612;7.278;2022-11-11T11:59:54;102657.44;;;12.34;100.00
5996;BME280;3026;53.612;7.278;2022-11-11T12:05:23;102646.50;;;12.34;100.00
5996;BME280;3026;53.612;7.278;2022-11-11T12:08:09;102668.09;;;12.37;100.00
5996;BME280;3026;53.612;7.278;2022-11-11T12:10:45;102669.81;;;12.38;100.00
5996;BME280;3026;53.612;7.278;2022-11-11T12:13:29;102649.94;;;12.36;100.00
5996;BME280;3026;53.612;7.278;2022-11-11T12:16:10;102664.34;;;12.38;100.00
5996;BME280;3026;53.612;7.278;2022-11-11T12:19:03;102664.34;;;12.38;100.00
5996;BME280;3026;53.612;7.278;2022-11-11T12:21:40;102659.16;;;12.35;100.00
5996;BME280;3026;53.612;7.278;2022-11-11T12:24:17;102666.09;;;12.39;100.00
5996;BME280;3026;53.612;7.278;2022-11-11T12:26:56;102653.69;;;12.35;100.00
5996;BME280;3026;53.612;7.278;2022-11-11T12:29:41;102671.59;;;12.39;100.00
5996;BME280;3026;53.612;7.278;2022-11-11T12:32:31;102659.16;;;12.35;100.00
5996;BME280;3026;53.612;7.278;2022-11-11T12:35:28;102670.09;;;12.35;100.00
5996;BME280;3026;53.612;7.278;2022-11-11T12:38:13;102664.63;;;12.35;100.00
5996;BME280;3026;53.612;7.278;2022-11-11T12:40:53;102671.59;;;12.39;100.00
5996;BME280;3026;53.612;7.278;2022-11-11T12:43:33;102673.56;;;12.37;100.00
5996;BME280;3026;53.612;7.278;2022-11-11T12:46:05;102677.06;;;12.39;100.00
5996;BME280;3026;53.612;7.278;2022-11-11T12:48:51;102668.09;;;12.37;100.00
5996;BME280;3026;53.612;7.278;2022-11-11T12:51:31;102685.13;;;12.40;100.00
5996;BME280;3026;53.612;7.278;2022-11-11T12:54:07;102685.25;;;12.39;100.00
5996;BME280;3026;53.612;7.278;2022-11-11T12:56:47;102673.56;;;12.37;100.00
5996;BME280;3026;53.612;7.278;2022-11-11T12:59:25;102689.44;;;12.43;100.00
5996;BME280;3026;53.612;7.278;2022-11-11T13:02:01;102684.09;;;12.41;100.00
5996;BME280;3026;53.612;7.278;2022-11-11T13:04:50;102691.72;;;12.38;100.00
5996;BME280;3026;53.612;7.278;2022-11-11T13:07:39;102691.44;;;12.41;100.00
5996;BME280;3026;53.612;7.278;2022-11-11T13:10:25;102696.94;;;12.41;100.00
5996;BME280;3026;53.612;7.278;2022-11-11T13:13:02;102703.13;;;12.43;100.00
5996;BME280;3026;53.612;7.278;2022-11-11T13:15:32;102699.50;;;12.42;100.00
5996;BME280;3026;53.612;7.278;2022-11-11T13:18:00;102696.63;;;12.44;100.00
5996;BME280;3026;53.612;7.278;2022-11-11T13:20:45;102699.50;;;12.42;100.00
5996;BME280;3026;53.612;7.278;2022-11-11T13:23:20;102702.41;;;12.41;100.00
5996;BME280;3026;53.612;7.278;2022-11-11T13:25:50;102700.38;;;12.43;100.00
5996;BME280;3026;53.612;7.278;2022-11-11T13:28:21;102694.34;;;12.39;100.00
5996;BME280;3026;53.612;7.278;2022-11-11T13:31:02;102705.13;;;12.41;100.00
5996;BME280;3026;53.612;7.278;2022-11-11T13:33:40;102711.63;;;12.40;100.00
5996;BME280;3026;53.612;7.278;2022-11-11T13:36:11;102702.41;;;12.41;100.00
5996;BME280;3026;53.612;7.278;2022-11-11T13:38:49;102707.00;;;12.40;100.00
5996;BME280;3026;53.612;7.278;2022-11-11T13:41:24;102705.28;;;12.39;100.00
5996;BME280;3026;53.612;7.278;2022-11-11T13:43:55;102711.63;;;12.40;100.00
5996;BME280;3026;53.612;7.278;2022-11-11T13:46:33;102698.94;;;12.39;100.00